Time;durP1;ratioP1;P1;durP2;ratioP2;P2;SDS_P1;SDS_P2;PMS_P1;PMS_P2;Temp;Humidity;BMP_temperature;BMP_pressure;BME280_temperature;BME280_humidity;BME280_pressure;Samples;Min_cycle;Max_cycle;Signal;HPM_P1;HPM_P2
2023/01/21 00:01:13;;;;;;;1.17;0.85;;;;;;;17.55;51.79;101729.03;5009671;28;20104;-81
2023/01/21 00:03:39;;;;;;;0.98;0.88;;;;;;;17.53;52.05;101734.63;5026662;28;20442;-81
2023/01/21 00:06:05;;;;;;;0.80;0.80;;;;;;;17.54;51.75;101730.03;5011625;28;20051;-81
2023/01/21 00:08:31;;;;;;;0.70;0.70;;;;;;;17.51;51.89;101735.88;5009885;28;20448;-81
2023/01/21 00:11:02;;;;;;;0.70;0.70;;;;;;;17.52;51.95;101738.34;5012989;28;20108;-81
2023/01/21 00:13:28;;;;;;;0.95;0.70;;;;;;;17.51;52.05;101746.69;5030642;28;20037;-81
2023/01/21 00:15:54;;;;;;;0.60;0.60;;;;;;;17.49;51.97;101757.69;5071440;28;20043;-81
2023/01/21 00:18:19;;;;;;;1.05;0.85;;;;;;;17.49;51.90;101752.28;5072255;28;20024;-81
2023/01/21 00:20:45;;;;;;;0.70;0.70;;;;;;;17.49;51.80;101764.94;5051015;28;20033;-81
2023/01/21 00:23:11;;;;;;;0.80;0.80;;;;;;;17.45;51.83;101765.38;5049208;28;20730;-81
2023/01/21 00:25:37;;;;;;;0.60;0.60;;;;;;;17.46;51.85;101777.00;5048143;28;20036;-81
2023/01/21 00:28:03;;;;;;;0.70;0.70;;;;;;;17.41;51.95;101785.69;5049612;28;20029;-81
2023/01/21 00:30:29;;;;;;;0.95;0.88;;;;;;;17.41;51.79;101793.81;5046108;28;20029;-80
2023/01/21 00:32:55;;;;;;;0.80;0.70;;;;;;;17.41;51.77;101799.22;5049031;28;20517;-81
2023/01/21 00:35:20;;;;;;;0.93;0.90;;;;;;;17.36;52.07;101796.28;5048753;28;20505;-83
2023/01/21 00:37:46;;;;;;;1.55;0.80;;;;;;;17.42;51.73;101814.41;5047790;28;20021;-82
2023/01/21 00:40:12;;;;;;;0.95;0.60;;;;;;;17.42;51.76;101811.72;5048332;28;20041;-82
2023/01/21 00:42:37;;;;;;;0.75;0.70;;;;;;;17.38;51.65;101821.22;5049139;28;20139;-82
2023/01/21 00:45:03;;;;;;;0.93;0.70;;;;;;;17.39;51.71;101816.69;5048631;28;20127;-82
2023/01/21 00:47:29;;;;;;;1.67;0.65;;;;;;;17.38;51.87;101831.22;5047400;28;20059;-81
2023/01/21 00:49:55;;;;;;;0.80;0.70;;;;;;;17.37;51.75;101824.16;5048956;28;20056;-81
2023/01/21 00:52:20;;;;;;;0.80;0.70;;;;;;;17.32;51.90;101830.13;5048891;28;20549;-81
2023/01/21 00:54:46;;;;;;;0.88;0.70;;;;;;;17.34;51.70;101822.66;5047465;28;20033;-81
2023/01/21 00:57:12;;;;;;;0.60;0.60;;;;;;;17.35;51.77;101829.75;5047790;28;20040;-81
2023/01/21 00:59:38;;;;;;;0.80;0.70;;;;;;;17.31;51.79;101828.44;5048339;28;20057;-81
2023/01/21 01:02:04;;;;;;;0.70;0.70;;;;;;;17.30;51.70;101832.22;5048534;28;20036;-81
2023/01/21 01:04:29;;;;;;;0.77;0.70;;;;;;;17.32;51.50;101827.44;5046365;28;20162;-81
2023/01/21 01:06:55;;;;;;;0.73;0.73;;;;;;;17.29;51.79;101832.41;5048709;28;20072;-81
2023/01/21 01:09:20;;;;;;;0.60;0.60;;;;;;;17.25;51.76;101829.25;5048690;28;20058;-81
2023/01/21 01:11:46;;;;;;;1.48;0.73;;;;;;;17.25;51.74;101830.09;5048635;28;20025;-81
2023/01/21 01:14:12;;;;;;;0.80;0.80;;;;;;;17.25;51.70;101837.38;5031782;28;20577;-81
2023/01/21 01:16:37;;;;;;;0.77;0.77;;;;;;;17.27;51.45;101835.28;5028451;28;20034;-81
2023/01/21 01:19:03;;;;;;;0.70;0.70;;;;;;;17.27;51.65;101829.88;5028481;28;20031;-81
2023/01/21 01:21:29;;;;;;;0.60;0.60;;;;;;;17.25;51.51;101840.06;5025706;28;20028;-81
2023/01/21 01:23:59;;;;;;;0.65;0.60;;;;;;;17.23;51.78;101847.50;5028026;28;20021;-81
2023/01/21 01:26:25;;;;;;;0.60;0.60;;;;;;;17.18;51.54;101840.00;5028218;28;20037;-81
2023/01/21 01:28:51;;;;;;;0.98;0.77;;;;;;;17.20;51.57;101839.81;5010612;28;20070;-81
2023/01/21 01:31:19;;;;;;;0.60;0.60;;;;;;;17.19;51.83;101835.44;4991569;28;20034;-81
2023/01/21 01:33:45;;;;;;;0.63;0.60;;;;;;;17.20;51.55;101843.34;4994692;28;20025;-81
2023/01/21 01:36:15;;;;;;;0.80;0.70;;;;;;;17.19;51.62;101838.97;5027823;28;20025;-81
2023/01/21 01:38:41;;;;;;;0.60;0.60;;;;;;;17.20;51.42;101832.53;5027860;28;20029;-81
2023/01/21 01:41:07;;;;;;;0.80;0.80;;;;;;;17.17;51.44;101837.50;5027382;28;20751;-81
2023/01/21 01:43:53;;;;;;;0.70;0.70;;;;;;;17.18;51.36;101828.38;5010150;28;20029;-81
2023/01/21 01:46:19;;;;;;;0.65;0.63;;;;;;;17.11;51.88;101839.13;5027488;28;20069;-80
2023/01/21 01:48:47;;;;;;;0.52;0.52;;;;;;;17.15;51.43;101834.16;5027620;28;20057;-80
2023/01/21 01:51:14;;;;;;;0.90;0.80;;;;;;;17.12;51.72;101848.06;5027246;28;20041;-80
2023/01/21 01:53:39;;;;;;;0.93;0.70;;;;;;;17.14;51.45;101854.09;5026913;28;20033;-81
2023/01/21 01:56:05;;;;;;;0.70;0.70;;;;;;;17.12;51.40;101840.78;5010101;28;20542;-81
2023/01/21 01:58:31;;;;;;;0.57;0.50;;;;;;;17.13;51.33;101852.44;4992915;28;20379;-80
2023/01/21 02:00:57;;;;;;;0.70;0.60;;;;;;;17.12;51.57;101846.19;4992503;28;20097;-81
2023/01/21 02:06:07;;;;;;;;;;;;;;;17.07;51.71;101849.50;5019380;28;20095;-79
2023/01/21 02:08:34;;;;;;;0.70;0.70;;;;;;;17.05;51.36;101856.94;5009312;28;19917;-81
2023/01/21 02:11:01;;;;;;;0.57;0.57;;;;;;;17.08;50.97;101851.16;4992256;28;20120;-81
2023/01/21 02:13:28;;;;;;;0.88;0.80;;;;;;;17.06;51.47;101858.63;5024058;28;20040;-81
2023/01/21 02:16:02;;;;;;;0.60;0.60;;;;;;;17.06;51.47;101863.19;5045608;28;20072;-81
2023/01/21 02:18:36;;;;;;;0.55;0.52;;;;;;;17.02;51.56;101857.34;5047071;28;20021;-81
2023/01/21 02:21:23;;;;;;;0.70;0.70;;;;;;;17.05;51.34;101866.91;5047341;28;20083;-81
2023/01/21 02:24:16;;;;;;;0.80;0.60;;;;;;;17.04;51.12;101868.78;5045797;28;20330;-81
2023/01/21 02:27:32;;;;;;;0.60;0.60;;;;;;;17.00;51.54;101881.00;5045602;28;20057;-81
2023/01/21 02:30:09;;;;;;;0.60;0.60;;;;;;;17.00;51.41;101881.00;4984774;28;20030;-81
2023/01/21 02:32:55;;;;;;;0.85;0.73;;;;;;;17.00;51.34;101881.00;5034417;28;20410;-81
2023/01/21 02:35:44;;;;;;;0.70;0.70;;;;;;;16.94;51.60;101887.19;5045229;28;20061;-81
2023/01/21 02:38:44;;;;;;;0.73;0.60;;;;;;;16.93;51.44;101893.59;5045280;28;20028;-81
2023/01/21 02:41:35;;;;;;;0.60;0.60;;;;;;;16.92;51.21;101888.38;4991301;28;20033;-81
2023/01/21 02:44:22;;;;;;;0.80;0.70;;;;;;;16.94;51.33;101897.97;5043897;28;20025;-81
2023/01/21 02:47:36;;;;;;;0.60;0.50;;;;;;;16.91;51.32;101898.34;5045477;28;20051;-81
2023/01/21 02:50:06;;;;;;;0.88;0.70;;;;;;;16.92;51.29;101899.19;5029179;28;20037;-81
2023/01/21 02:52:31;;;;;;;0.60;0.60;;;;;;;16.89;51.56;101900.41;5043652;28;20025;-81
2023/01/21 02:54:58;;;;;;;0.70;0.60;;;;;;;16.89;51.27;101903.13;5046705;28;20102;-81
2023/01/21 02:57:30;;;;;;;0.55;0.50;;;;;;;16.87;51.36;101903.31;5028089;28;20029;-81
2023/01/21 02:59:56;;;;;;;3.60;0.98;;;;;;;16.87;51.42;101903.31;5046462;28;20028;-81
2023/01/21 03:02:39;;;;;;;0.63;0.63;;;;;;;16.83;51.37;101906.53;5048712;28;20025;-81
2023/01/21 03:05:47;;;;;;;0.70;0.70;;;;;;;16.85;51.07;101918.88;5069449;28;20032;-81
2023/01/21 03:08:19;;;;;;;0.55;0.55;;;;;;;16.86;50.98;101917.00;4986429;28;20122;-80
2023/01/21 03:10:52;;;;;;;0.57;0.57;;;;;;;16.83;51.07;101917.34;4952017;28;20106;-80
2023/01/21 03:16:55;;;;;;;0.55;0.55;;;;;;;16.81;51.25;101919.41;4995817;28;20565;-81
2023/01/21 03:18:52;;;;;;;0.70;0.60;;;;;;;16.82;51.19;101931.91;5049446;28;20135;-81
2023/01/21 03:21:21;;;;;;;0.90;0.60;;;;;;;16.79;51.31;101937.66;5050102;28;20125;-81
2023/01/21 03:23:47;;;;;;;0.70;0.60;;;;;;;16.79;51.00;101938.50;5050728;28;20040;-79
2023/01/21 03:26:14;;;;;;;0.60;0.60;;;;;;;16.79;51.05;101945.78;5048811;28;20079;-81
2023/01/21 03:28:44;;;;;;;0.52;0.50;;;;;;;16.78;51.20;101953.03;5050465;28;20111;-80
2023/01/21 03:31:21;;;;;;;0.60;0.60;;;;;;;16.78;51.12;101949.47;5049911;28;20083;-81
2023/01/21 03:33:47;;;;;;;0.57;0.57;;;;;;;16.77;50.98;101947.81;5032297;28;20025;-81
2023/01/21 03:36:19;;;;;;;0.70;0.70;;;;;;;16.75;50.99;101949.84;5048788;28;20371;-81
2023/01/21 03:38:47;;;;;;;0.85;0.73;;;;;;;16.72;51.16;101953.78;5048973;28;20029;-83
2023/01/21 03:41:15;;;;;;;0.95;0.77;;;;;;;16.71;51.27;101942.16;5030109;28;20060;-82
2023/01/21 03:43:41;;;;;;;0.50;0.50;;;;;;;16.73;50.97;101955.47;5049032;28;20079;-82
2023/01/21 03:46:19;;;;;;;0.60;0.60;;;;;;;16.75;50.82;101960.66;5031837;28;20064;-81
2023/01/21 03:48:48;;;;;;;0.63;0.60;;;;;;;16.70;51.13;101951.28;5048924;28;20029;-81
2023/01/21 03:51:19;;;;;;;1.42;0.80;;;;;;;16.68;50.93;101953.34;5049703;28;20131;-80
2023/01/21 03:53:45;;;;;;;0.60;0.60;;;;;;;16.68;50.97;101952.50;5029728;28;20059;-81
2023/01/21 03:56:10;;;;;;;0.60;0.60;;;;;;;16.67;51.14;101959.75;5048083;28;20116;-80
2023/01/21 03:58:36;;;;;;;0.63;0.63;;;;;;;16.66;51.01;101957.22;5049514;28;20159;-80
2023/01/21 04:01:02;;;;;;;0.50;0.50;;;;;;;16.66;51.00;101954.53;5050029;28;20028;-81
2023/01/21 04:03:27;;;;;;;0.70;0.60;;;;;;;16.65;51.05;101959.09;5048621;28;20104;-81
2023/01/21 04:05:53;;;;;;;0.80;0.63;;;;;;;16.63;50.98;101954.94;5049151;28;20496;-80
2023/01/21 04:08:18;;;;;;;0.47;0.47;;;;;;;16.63;50.85;101963.88;5048297;28;20115;-81
2023/01/21 04:10:44;;;;;;;0.52;0.50;;;;;;;16.61;51.11;101960.53;5049431;28;20127;-81
2023/01/21 04:13:10;;;;;;;0.80;0.70;;;;;;;16.60;51.21;101960.72;5041445;28;20403;-80
2023/01/21 04:15:35;;;;;;;0.50;0.50;;;;;;;16.60;51.03;101980.44;5028727;28;20695;-81
2023/01/21 04:18:01;;;;;;;0.63;0.63;;;;;;;16.62;51.02;101991.88;5029381;28;20030;-80
2023/01/21 04:20:26;;;;;;;1.02;0.50;;;;;;;16.61;50.86;101990.22;5029825;28;20029;-81
2023/01/21 04:22:52;;;;;;;1.15;0.60;;;;;;;16.63;50.86;101981.94;5029389;28;20029;-80
2023/01/21 04:25:18;;;;;;;0.95;0.75;;;;;;;16.61;51.03;101983.97;5011117;28;20037;-81
2023/01/21 04:27:44;;;;;;;0.57;0.57;;;;;;;16.57;50.91;101985.38;5029272;28;20025;-81
2023/01/21 04:30:10;;;;;;;0.60;0.60;;;;;;;16.57;50.79;101997.00;5011528;28;20086;-80
2023/01/21 04:32:36;;;;;;;0.70;0.70;;;;;;;16.55;51.07;101998.22;5011541;28;20470;-80
2023/01/21 04:35:02;;;;;;;0.80;0.80;;;;;;;16.55;50.76;102001.75;5028917;28;20033;-80
2023/01/21 04:37:27;;;;;;;0.50;0.50;;;;;;;16.51;51.15;102008.56;5011005;28;20513;-80
2023/01/21 04:39:53;;;;;;;0.70;0.65;;;;;;;16.54;50.98;102016.28;5029050;28;20116;-81
2023/01/21 04:42:19;;;;;;;0.50;0.50;;;;;;;16.50;51.05;102023.06;5029666;28;20053;-80
2023/01/21 04:44:44;;;;;;;1.60;0.70;;;;;;;16.53;50.87;102030.78;5028729;28;20025;-81
2023/01/21 04:47:10;;;;;;;0.50;0.50;;;;;;;16.50;50.87;102023.06;5028535;28;20029;-80
2023/01/21 04:49:36;;;;;;;0.50;0.50;;;;;;;16.52;50.75;102018.31;5028940;28;20033;-81
2023/01/21 04:52:01;;;;;;;0.80;0.80;;;;;;;16.51;50.79;102022.88;5028992;28;20119;-81
2023/01/21 04:54:27;;;;;;;0.52;0.52;;;;;;;16.48;50.96;102027.81;5028876;28;20052;-81
2023/01/21 04:56:55;;;;;;;0.75;0.75;;;;;;;16.49;50.87;102033.03;5028637;28;20116;-80
2023/01/21 04:59:20;;;;;;;0.60;0.60;;;;;;;16.47;51.07;102031.53;5028376;28;20036;-81
2023/01/21 05:01:46;;;;;;;0.60;0.60;;;;;;;16.49;51.00;102029.50;5010870;28;20040;-81
2023/01/21 05:04:12;;;;;;;0.60;0.60;;;;;;;16.49;50.93;102037.59;5010683;28;20037;-81
2023/01/21 05:06:37;;;;;;;0.60;0.60;;;;;;;16.48;50.95;102052.09;5027952;28;20048;-80
2023/01/21 05:09:03;;;;;;;0.55;0.55;;;;;;;16.46;50.74;102049.59;5010967;28;20029;-81
2023/01/21 05:11:29;;;;;;;0.70;0.70;;;;;;;16.46;50.90;102052.28;5028168;28;20022;-81
2023/01/21 05:13:54;;;;;;;0.60;0.60;;;;;;;16.46;50.90;102054.16;5028566;28;20033;-81
2023/01/21 05:16:20;;;;;;;0.55;0.55;;;;;;;16.46;51.00;102065.78;5028027;28;20480;-81
2023/01/21 05:18:47;;;;;;;0.70;0.70;;;;;;;16.46;50.88;102073.88;5028238;28;20026;-81
2023/01/21 05:21:12;;;;;;;0.55;0.55;;;;;;;16.44;51.02;102065.13;5027615;28;20100;-81
2023/01/21 05:23:41;;;;;;;0.60;0.60;;;;;;;16.43;50.84;102071.53;5010831;28;20083;-81
2023/01/21 05:26:06;;;;;;;0.40;0.40;;;;;;;16.41;51.37;102081.69;5027946;28;20558;-81
2023/01/21 05:28:32;;;;;;;0.60;0.60;;;;;;;16.44;50.88;102081.31;5010302;28;20133;-81
2023/01/21 05:31:01;;;;;;;0.60;0.60;;;;;;;16.44;51.09;102080.50;5028055;28;20029;-80
2023/01/21 05:33:31;;;;;;;0.75;0.73;;;;;;;16.44;50.94;102085.91;5027802;28;20052;-80
2023/01/21 05:35:57;;;;;;;0.65;0.65;;;;;;;16.43;50.89;102084.22;5010710;28;20021;-81
2023/01/21 05:38:22;;;;;;;0.60;0.50;;;;;;;16.43;51.10;102087.72;5027673;28;20434;-81
2023/01/21 05:40:48;;;;;;;0.60;0.60;;;;;;;16.42;51.08;102091.47;5027951;28;20025;-81
2023/01/21 05:43:13;;;;;;;0.82;0.80;;;;;;;16.42;51.15;102098.72;5027701;28;20403;-81
2023/01/21 05:45:39;;;;;;;0.82;0.60;;;;;;;16.39;51.21;102102.63;5027655;28;20031;-81
2023/01/21 05:48:05;;;;;;;0.65;0.65;;;;;;;16.44;51.10;102113.72;5028673;28;20052;-81
2023/01/21 05:50:31;;;;;;;0.52;0.50;;;;;;;16.39;51.08;102118.00;5011334;28;20040;-81
2023/01/21 05:52:57;;;;;;;0.50;0.50;;;;;;;16.42;51.07;102120.28;5040230;28;20013;-81
2023/01/21 05:55:23;;;;;;;0.60;0.60;;;;;;;16.42;51.19;102125.69;5032264;28;20045;-80
2023/01/21 05:57:48;;;;;;;0.70;0.60;;;;;;;16.41;51.17;102113.25;5048556;28;20129;-81
2023/01/21 06:00:14;;;;;;;1.33;0.57;;;;;;;16.42;51.10;102123.84;5039221;28;20440;-81
2023/01/21 06:02:40;;;;;;;0.43;0.43;;;;;;;16.41;51.46;102134.81;5029442;28;20029;-81
2023/01/21 06:05:09;;;;;;;0.65;0.60;;;;;;;16.44;51.33;102135.28;5027596;28;20032;-81
2023/01/21 06:07:34;;;;;;;0.63;0.57;;;;;;;16.43;51.24;102132.78;5027576;28;20115;-81
2023/01/21 06:10:00;;;;;;;0.80;0.60;;;;;;;16.43;51.09;102138.19;5027667;28;20483;-81
2023/01/21 06:12:25;;;;;;;0.60;0.60;;;;;;;16.42;51.43;102141.88;4993369;28;20025;-81
2023/01/21 06:14:51;;;;;;;0.60;0.60;;;;;;;16.42;51.31;102142.75;5009775;28;20045;-81
2023/01/21 06:17:17;;;;;;;0.82;0.73;;;;;;;16.41;51.25;102142.94;4992566;28;20037;-81
2023/01/21 06:19:43;;;;;;;1.05;0.80;;;;;;;16.41;51.46;102151.03;5027636;28;20025;-81
2023/01/21 06:22:14;;;;;;;0.63;0.63;;;;;;;16.42;51.37;102152.69;5027362;28;20063;-81
2023/01/21 06:24:39;;;;;;;0.60;0.60;;;;;;;16.39;51.65;102153.06;5010167;28;20494;-81
2023/01/21 06:27:08;;;;;;;0.70;0.70;;;;;;;16.41;51.47;102161.81;5024717;28;20029;-81
2023/01/21 06:29:34;;;;;;;0.57;0.57;;;;;;;16.42;51.31;102155.38;5007785;28;20100;-81
2023/01/21 06:31:59;;;;;;;0.65;0.65;;;;;;;16.44;51.36;102166.84;5009048;28;20128;-80
2023/01/21 06:34:25;;;;;;;0.70;0.70;;;;;;;16.45;51.15;102173.91;5009285;28;20063;-82
2023/01/21 06:36:51;;;;;;;0.90;0.70;;;;;;;16.44;51.49;102172.25;5027060;28;20100;-82
2023/01/21 06:39:16;;;;;;;0.68;0.60;;;;;;;16.42;51.45;102179.66;5026344;28;20521;-81
2023/01/21 06:41:42;;;;;;;0.70;0.70;;;;;;;16.44;51.68;102188.44;5026853;28;20033;-81
2023/01/21 06:44:07;;;;;;;1.25;0.80;;;;;;;16.45;51.61;102184.69;5027342;28;20029;-81
2023/01/21 06:46:33;;;;;;;0.70;0.70;;;;;;;16.45;51.45;102180.16;5007341;28;20116;-81
2023/01/21 06:48:59;;;;;;;0.88;0.80;;;;;;;16.47;51.54;102177.25;5009055;28;20044;-81
2023/01/21 06:51:24;;;;;;;0.73;0.70;;;;;;;16.45;51.42;102179.31;4974460;28;20030;-81
2023/01/21 06:53:50;;;;;;;0.80;0.80;;;;;;;16.44;51.57;102189.28;5007518;28;20029;-81
2023/01/21 06:56:18;;;;;;;1.05;0.80;;;;;;;16.45;51.56;102190.97;5009216;28;20034;-81
2023/01/21 06:58:44;;;;;;;0.73;0.70;;;;;;;16.47;51.74;102188.91;5026753;28;20601;-81
2023/01/21 07:01:10;;;;;;;0.85;0.80;;;;;;;16.46;51.69;102191.78;5026186;28;20059;-81
2023/01/21 07:03:35;;;;;;;0.60;0.60;;;;;;;16.48;51.76;102189.75;5024623;28;20041;-81
2023/01/21 07:06:01;;;;;;;1.52;0.90;;;;;;;16.47;51.82;102193.44;5026017;28;20026;-81
2023/01/21 07:08:27;;;;;;;1.85;0.90;;;;;;;16.48;51.68;102195.13;5026560;28;20368;-80
2023/01/21 07:10:52;;;;;;;0.73;0.73;;;;;;;16.45;51.98;102187.41;5026548;28;20112;-81
2023/01/21 07:13:18;;;;;;;1.00;0.90;;;;;;;16.47;51.87;102191.59;5023722;28;20501;-81
2023/01/21 07:15:43;;;;;;;0.88;0.80;;;;;;;16.49;51.78;102191.44;5026614;28;20418;-81
2023/01/21 07:18:09;;;;;;;0.82;0.80;;;;;;;16.49;51.88;102194.97;5008721;28;20029;-81
2023/01/21 07:20:35;;;;;;;0.75;0.75;;;;;;;16.49;51.74;102189.56;5026833;28;20025;-81
2023/01/21 07:23:00;;;;;;;0.70;0.70;;;;;;;16.50;51.72;102193.91;5008881;28;20029;-81
2023/01/21 07:25:26;;;;;;;0.73;0.63;;;;;;;16.48;51.75;102197.84;5026110;28;20513;-81
2023/01/21 07:27:52;;;;;;;0.90;0.70;;;;;;;16.51;51.92;102201.00;5026633;28;20060;-81
2023/01/21 07:30:18;;;;;;;0.68;0.68;;;;;;;16.51;51.71;102194.78;5026704;28;20021;-81
2023/01/21 07:32:45;;;;;;;0.60;0.60;;;;;;;16.50;51.73;102193.91;5026386;28;20029;-81
2023/01/21 07:35:10;;;;;;;1.15;0.85;;;;;;;16.50;51.89;102193.09;5026083;28;21257;-81
2023/01/21 07:37:36;;;;;;;1.02;0.80;;;;;;;16.53;51.64;102190.03;5026423;28;20033;-81
2023/01/21 07:40:02;;;;;;;1.08;0.80;;;;;;;16.49;51.82;102197.66;5026817;28;20029;-81
2023/01/21 07:42:28;;;;;;;0.90;0.80;;;;;;;16.51;51.69;102194.78;5008950;28;20025;-81
2023/01/21 07:44:53;;;;;;;0.70;0.70;;;;;;;16.50;51.60;102209.28;5026373;28;20022;-81
2023/01/21 07:47:19;;;;;;;1.33;0.80;;;;;;;16.51;51.73;102213.66;5025844;28;20330;-81
2023/01/21 07:49:45;;;;;;;0.70;0.70;;;;;;;16.50;51.80;102215.50;5007688;28;20445;-81
2023/01/21 07:52:10;;;;;;;0.73;0.60;;;;;;;16.47;51.60;102215.03;5011804;28;20151;-81
2023/01/21 07:54:36;;;;;;;0.82;0.82;;;;;;;16.52;51.61;102228.81;5030405;28;20104;-81
2023/01/21 07:57:01;;;;;;;0.80;0.70;;;;;;;16.53;51.57;102235.91;5030185;28;20029;-81
2023/01/21 07:59:27;;;;;;;0.88;0.77;;;;;;;16.54;51.51;102232.22;5011842;28;20037;-81
2023/01/21 08:01:53;;;;;;;0.93;0.80;;;;;;;16.53;51.57;102244.00;5029696;28;20033;-81
2023/01/21 08:04:18;;;;;;;0.60;0.60;;;;;;;16.53;51.49;102246.72;5029535;28;20033;-81
2023/01/21 08:06:44;;;;;;;0.60;0.60;;;;;;;16.53;51.65;102249.41;5030104;28;20345;-83
2023/01/21 08:09:09;;;;;;;0.73;0.73;;;;;;;16.52;51.46;102250.41;5011675;28;20053;-82
2023/01/21 08:11:35;;;;;;;1.38;0.80;;;;;;;16.51;51.39;102251.47;5029832;28;20064;-82
2023/01/21 08:14:01;;;;;;;1.00;0.90;;;;;;;16.52;51.31;102250.41;5029565;28;20049;-82
2023/01/21 08:16:26;;;;;;;0.75;0.70;;;;;;;16.52;51.49;102253.13;5029187;28;20029;-82
2023/01/21 08:18:53;;;;;;;0.60;0.52;;;;;;;16.53;51.53;102250.25;5029418;28;20029;-81
2023/01/21 08:21:19;;;;;;;1.10;0.80;;;;;;;16.51;51.34;102260.38;5028799;28;20057;-81
2023/01/21 08:23:45;;;;;;;0.88;0.77;;;;;;;16.53;51.40;102260.19;5029504;28;20064;-81
2023/01/21 08:26:11;;;;;;;0.90;0.80;;;;;;;16.52;51.41;102261.22;5011170;28;20081;-81
2023/01/21 08:28:36;;;;;;;0.85;0.80;;;;;;;16.56;51.20;102267.94;5029029;28;20380;-81
2023/01/21 08:31:12;;;;;;;1.60;0.65;;;;;;;16.57;51.26;102274.19;5011361;28;20127;-81
2023/01/21 08:33:37;;;;;;;0.70;0.70;;;;;;;16.56;51.34;102272.47;5029107;28;20025;-81
2023/01/21 08:36:05;;;;;;;1.10;1.00;;;;;;;16.53;51.22;102279.09;5029058;28;20026;-81
2023/01/21 08:38:31;;;;;;;0.73;0.73;;;;;;;16.54;51.13;102286.19;5028885;28;20360;-81
2023/01/21 08:40:59;;;;;;;0.63;0.60;;;;;;;16.54;51.28;102283.50;5029109;28;20025;-83
2023/01/21 08:43:25;;;;;;;0.85;0.70;;;;;;;16.53;51.25;102284.50;5011250;28;20116;-81
2023/01/21 08:45:51;;;;;;;0.75;0.70;;;;;;;16.52;51.42;102294.47;4994275;28;20112;-83
2023/01/21 08:48:17;;;;;;;0.90;0.70;;;;;;;16.53;51.26;102292.59;5028645;28;20048;-83
2023/01/21 08:50:46;;;;;;;0.70;0.70;;;;;;;16.52;51.31;102289.06;5027177;28;20095;-82
2023/01/21 08:53:11;;;;;;;1.20;0.90;;;;;;;16.47;51.34;102282.50;5026436;28;20033;-83
2023/01/21 08:55:37;;;;;;;0.93;0.63;;;;;;;16.52;51.31;102285.50;5028486;28;20037;-82
2023/01/21 08:58:02;;;;;;;0.90;0.68;;;;;;;16.52;51.16;102288.19;5011031;28;20029;-82
2023/01/21 09:00:28;;;;;;;1.00;0.80;;;;;;;16.53;51.44;102289.91;4994857;28;20824;-82
2023/01/21 09:02:54;;;;;;;0.88;0.85;;;;;;;16.53;51.34;102292.59;5027968;28;20037;-82
2023/01/21 09:05:20;;;;;;;0.70;0.70;;;;;;;16.53;51.29;102298.00;5010615;28;21567;-82
2023/01/21 09:07:46;;;;;;;0.80;0.80;;;;;;;16.52;51.16;102293.59;4995024;28;20046;-82
2023/01/21 09:10:12;;;;;;;0.80;0.80;;;;;;;16.52;51.37;102289.06;5012266;28;20033;-81
2023/01/21 09:12:39;;;;;;;1.00;0.80;;;;;;;16.51;50.85;102289.25;5032067;28;20044;-81
2023/01/21 09:15:08;;;;;;;0.65;0.65;;;;;;;16.49;51.34;102299.38;5051265;28;20013;-80
2023/01/21 09:17:34;;;;;;;0.75;0.70;;;;;;;16.52;51.12;102307.09;5049608;28;20013;-80
2023/01/21 09:20:02;;;;;;;1.13;0.80;;;;;;;16.53;51.12;102306.09;5046875;28;20454;-81
2023/01/21 09:22:28;;;;;;;0.75;0.75;;;;;;;16.51;51.14;102313.53;5030664;28;20112;-81
2023/01/21 09:24:53;;;;;;;0.70;0.70;;;;;;;16.53;51.12;102308.78;5030151;28;20503;-81
2023/01/21 09:27:26;;;;;;;0.98;0.70;;;;;;;16.52;51.22;102309.78;5028903;28;20557;-81
2023/01/21 09:29:51;;;;;;;1.25;0.88;;;;;;;16.52;51.29;102313.34;5028043;28;20083;-81
2023/01/21 09:32:17;;;;;;;0.95;0.88;;;;;;;16.50;51.10;102318.06;5028191;28;20025;-81
2023/01/21 09:34:42;;;;;;;1.20;0.70;;;;;;;16.52;51.26;102321.44;5028018;28;20065;-81
2023/01/21 09:37:08;;;;;;;0.70;0.70;;;;;;;16.53;51.06;102322.28;5027470;28;20033;-81
2023/01/21 09:39:34;;;;;;;0.90;0.73;;;;;;;16.52;51.02;102328.69;5027408;28;20044;-81
2023/01/21 09:41:59;;;;;;;0.88;0.80;;;;;;;16.49;51.00;102335.31;5025274;28;20064;-81
2023/01/21 09:44:39;;;;;;;1.00;0.77;;;;;;;16.52;51.27;102334.94;5027857;28;20025;-81
2023/01/21 09:47:34;;;;;;;0.85;0.70;;;;;;;16.51;50.99;102335.94;5009484;28;20494;-81
2023/01/21 09:50:02;;;;;;;1.08;0.90;;;;;;;16.52;51.17;102342.19;5010042;28;20123;-83
2023/01/21 09:52:53;;;;;;;1.05;0.85;;;;;;;16.51;51.30;102340.53;5027714;28;20083;-82
2023/01/21 09:55:24;;;;;;;0.98;0.85;;;;;;;16.51;51.24;102345.91;5008539;28;20522;-82
2023/01/21 09:58:17;;;;;;;1.13;0.70;;;;;;;16.55;51.20;102341.81;4991550;28;20042;-82
2023/01/21 10:00:47;;;;;;;0.80;0.80;;;;;;;16.53;51.14;102357.38;4993162;28;20113;-82
2023/01/21 10:03:33;;;;;;;1.00;0.82;;;;;;;16.52;51.26;102347.56;5009348;28;20513;-81
2023/01/21 10:06:15;;;;;;;1.13;0.77;;;;;;;16.48;51.38;102352.50;5026629;28;20022;-81
2023/01/21 10:09:02;;;;;;;0.80;0.80;;;;;;;16.53;51.42;102357.38;5009555;28;20536;-83
2023/01/21 10:11:42;;;;;;;0.80;0.73;;;;;;;16.51;51.45;102349.44;5027179;28;20036;-83
2023/01/21 10:14:52;;;;;;;0.85;0.80;;;;;;;16.54;51.39;102348.25;5035140;28;20051;-81
2023/01/21 10:17:52;;;;;;;0.80;0.80;;;;;;;16.55;51.37;102347.22;5002062;28;20076;-82
2023/01/21 10:20:46;;;;;;;1.00;0.90;;;;;;;16.53;51.45;102343.88;5045051;28;20437;-82
2023/01/21 10:23:30;;;;;;;1.15;0.93;;;;;;;16.56;51.34;102342.66;5037081;28;20099;-82
2023/01/21 10:25:56;;;;;;;1.00;0.80;;;;;;;16.56;51.45;102346.22;5046185;28;20410;-82
2023/01/21 10:28:27;;;;;;;0.93;0.80;;;;;;;16.59;51.28;102343.16;5045821;28;20094;-82
2023/01/21 10:31:24;;;;;;;0.82;0.70;;;;;;;16.56;51.57;102340.81;5046785;28;20210;-81
2023/01/21 10:33:49;;;;;;;0.77;0.77;;;;;;;16.58;51.67;102341.47;5045529;28;20061;-81
2023/01/21 10:36:33;;;;;;;0.70;0.70;;;;;;;16.58;51.79;102341.47;5045635;28;20519;-81
2023/01/21 10:39:11;;;;;;;1.02;0.88;;;;;;;16.58;51.74;102341.47;5042287;28;20029;-82
2023/01/21 10:41:59;;;;;;;1.05;0.80;;;;;;;16.60;51.69;102347.53;5045393;28;20206;-81
2023/01/21 10:44:47;;;;;;;1.05;0.80;;;;;;;16.60;51.75;102339.44;5045528;28;20509;-82
2023/01/21 10:47:22;;;;;;;0.98;0.80;;;;;;;16.61;51.81;102340.25;5043408;28;20041;-82
2023/01/21 10:49:53;;;;;;;1.08;0.88;;;;;;;16.61;51.59;102346.53;5046017;28;20049;-82
2023/01/21 10:52:33;;;;;;;0.82;0.80;;;;;;;16.60;51.86;102349.41;5047099;28;20078;-81
2023/01/21 10:55:11;;;;;;;1.02;0.93;;;;;;;16.62;51.80;102353.59;5019409;28;20033;-81
2023/01/21 10:57:52;;;;;;;0.68;0.68;;;;;;;16.61;51.80;102349.22;5047126;28;20060;-81
2023/01/21 11:00:25;;;;;;;0.98;0.75;;;;;;;16.63;51.96;102355.28;5047033;28;20033;-82
2023/01/21 11:02:54;;;;;;;1.15;0.70;;;;;;;16.64;51.66;102362.38;5029819;28;20443;-82
2023/01/21 11:05:19;;;;;;;0.77;0.65;;;;;;;16.65;52.00;102372.13;5044711;28;20621;-82
2023/01/21 11:07:45;;;;;;;0.88;0.77;;;;;;;16.66;51.83;102368.41;5047205;28;20025;-81
2023/01/21 11:10:22;;;;;;;0.70;0.70;;;;;;;16.66;51.89;102365.72;5045240;28;20043;-81
2023/01/21 11:12:48;;;;;;;0.93;0.77;;;;;;;16.66;51.80;102373.81;5045230;28;20071;-81
2023/01/21 11:15:18;;;;;;;0.70;0.70;;;;;;;16.70;51.73;102377.81;5028499;28;20028;-81
2023/01/21 11:17:45;;;;;;;0.95;0.95;;;;;;;16.66;51.80;102379.22;5045218;28;20036;-81
2023/01/21 11:20:40;;;;;;;1.00;0.82;;;;;;;16.69;51.76;102375.31;5046145;28;20556;-81
2023/01/21 11:23:06;;;;;;;1.02;0.90;;;;;;;16.70;51.60;102377.00;5012783;28;20494;-81
2023/01/21 11:25:40;;;;;;;1.10;0.82;;;;;;;16.71;51.80;102379.53;5047699;28;20025;-81
2023/01/21 11:28:23;;;;;;;0.80;0.80;;;;;;;16.73;51.94;102381.19;5048728;28;20399;-82
2023/01/21 11:30:49;;;;;;;0.70;0.70;;;;;;;16.74;51.71;102378.31;5048762;28;20033;-81
2023/01/21 11:33:20;;;;;;;0.88;0.65;;;;;;;16.73;51.81;102378.47;5048945;28;20490;-83
2023/01/21 11:35:46;;;;;;;1.00;0.90;;;;;;;16.77;51.77;102379.81;5047830;28;20052;-81
2023/01/21 11:38:32;;;;;;;0.88;0.80;;;;;;;16.74;51.86;102377.47;5050527;28;20056;-81
2023/01/21 11:41:02;;;;;;;0.60;0.60;;;;;;;16.74;51.91;102383.69;5048559;28;20107;-83